createdAt,value
2022-09-26T00:01:18.882Z,99.80
2022-09-26T00:03:48.829Z,99.90
2022-09-26T00:06:17.714Z,99.90
2022-09-26T00:08:46.282Z,99.90
2022-09-26T00:11:16.041Z,99.90
2022-09-26T00:13:43.117Z,99.90
2022-09-26T00:16:11.529Z,99.90
2022-09-26T00:18:38.792Z,99.90
2022-09-26T00:21:16.363Z,99.90
2022-09-26T00:23:43.757Z,99.90
2022-09-26T00:26:12.318Z,99.90
2022-09-26T00:28:39.080Z,99.90
2022-09-26T00:31:09.268Z,99.90
2022-09-26T00:33:36.031Z,99.90
2022-09-26T00:36:03.487Z,99.90
2022-09-26T00:38:30.273Z,99.90
2022-09-26T00:40:57.401Z,99.90
2022-09-26T00:43:31.553Z,99.90
2022-09-26T00:46:05.542Z,99.90
2022-09-26T00:48:35.144Z,99.90
2022-09-26T00:51:02.285Z,99.90
2022-09-26T00:53:35.921Z,99.90
2022-09-26T00:56:09.409Z,99.90
2022-09-26T00:58:41.545Z,99.90
2022-09-26T01:01:09.566Z,99.90
2022-09-26T01:03:38.638Z,99.90
2022-09-26T01:06:05.664Z,99.90
2022-09-26T01:08:41.017Z,99.90
2022-09-26T01:11:08.133Z,99.90
2022-09-26T01:13:36.670Z,99.90
2022-09-26T01:16:03.803Z,99.90
2022-09-26T01:18:30.835Z,99.90
2022-09-26T01:21:28.225Z,99.90
2022-09-26T01:24:22.888Z,99.90
2022-09-26T01:27:07.717Z,99.90
2022-09-26T01:30:01.462Z,99.90
2022-09-26T01:32:57.470Z,99.90
2022-09-26T01:35:36.395Z,99.90
2022-09-26T01:38:21.201Z,99.90
2022-09-26T01:40:47.873Z,99.90
2022-09-26T01:43:33.722Z,99.90
2022-09-26T01:46:23.650Z,99.90
2022-09-26T01:49:05.686Z,99.90
2022-09-26T01:52:08.538Z,99.90
2022-09-26T01:54:41.349Z,99.90
2022-09-26T01:57:14.754Z,99.90
2022-09-26T01:59:51.345Z,99.90
2022-09-26T02:02:25.544Z,99.90
2022-09-26T02:04:57.469Z,99.90
2022-09-26T02:07:38.714Z,99.90
2022-09-26T02:10:13.587Z,99.90
2022-09-26T02:12:45.372Z,99.90
2022-09-26T02:15:17.666Z,99.90
2022-09-26T02:17:48.830Z,99.90
2022-09-26T02:20:28.829Z,99.90
2022-09-26T02:22:57.380Z,99.90
2022-09-26T02:25:24.171Z,99.90
2022-09-26T02:27:51.202Z,99.90
2022-09-26T02:30:18.141Z,99.90
2022-09-26T02:32:45.135Z,99.90
2022-09-26T02:35:34.789Z,99.90
2022-09-26T02:38:01.705Z,99.90
2022-09-26T02:40:36.792Z,99.90
2022-09-26T02:43:38.625Z,99.90
2022-09-26T02:46:36.153Z,99.90
2022-09-26T02:49:08.623Z,99.90
2022-09-26T02:52:08.429Z,99.90
2022-09-26T02:54:44.249Z,99.90
2022-09-26T02:57:23.113Z,99.90
2022-09-26T03:00:16.184Z,99.90
2022-09-26T03:02:59.226Z,99.90
2022-09-26T03:05:29.489Z,99.90
2022-09-26T03:08:10.081Z,99.90
2022-09-26T03:10:37.955Z,99.90
2022-09-26T03:13:11.498Z,99.90
2022-09-26T03:15:40.648Z,99.90
2022-09-26T03:18:13.717Z,99.90
2022-09-26T03:20:41.506Z,99.90
2022-09-26T03:23:08.363Z,99.90
2022-09-26T03:25:35.231Z,99.90
2022-09-26T03:28:02.381Z,99.90
2022-09-26T03:30:29.869Z,99.90
2022-09-26T03:32:56.619Z,99.90
2022-09-26T03:35:23.625Z,99.90
2022-09-26T03:37:50.298Z,99.90
2022-09-26T03:40:17.069Z,99.90
2022-09-26T03:42:43.822Z,99.90
2022-09-26T03:45:11.293Z,99.90
2022-09-26T03:47:38.370Z,99.90
2022-09-26T03:50:09.051Z,99.90
2022-09-26T03:52:36.466Z,99.90
2022-09-26T03:55:04.051Z,99.90
2022-09-26T03:57:30.775Z,99.90
2022-09-26T03:59:57.534Z,99.90
2022-09-26T04:02:24.421Z,99.90
2022-09-26T04:04:51.264Z,99.90
2022-09-26T04:07:17.957Z,99.90
2022-09-26T04:09:44.646Z,99.90
2022-09-26T04:12:11.325Z,99.90
2022-09-26T04:14:37.993Z,99.90
2022-09-26T04:17:05.063Z,99.90
2022-09-26T04:19:31.904Z,99.90
2022-09-26T04:21:58.960Z,99.90
2022-09-26T04:24:25.772Z,99.90
2022-09-26T04:26:52.588Z,99.80
2022-09-26T04:29:19.570Z,99.90
2022-09-26T04:31:46.804Z,99.90
2022-09-26T04:34:14.837Z,99.80
2022-09-26T04:36:42.585Z,99.80
2022-09-26T04:39:09.719Z,99.80
2022-09-26T04:41:37.557Z,99.90
2022-09-26T04:44:04.283Z,99.80
2022-09-26T04:46:31.573Z,99.80
2022-09-26T04:49:00.493Z,99.80
2022-09-26T04:51:28.956Z,99.80
2022-09-26T04:53:56.027Z,99.70
2022-09-26T04:56:24.482Z,99.80
2022-09-26T04:58:51.655Z,99.80
2022-09-26T05:01:20.751Z,99.90
2022-09-26T05:03:47.791Z,99.90
2022-09-26T05:06:16.234Z,99.90
2022-09-26T05:08:47.616Z,99.90
2022-09-26T05:11:18.706Z,99.90
2022-09-26T05:13:48.066Z,99.90
2022-09-26T05:16:18.435Z,99.90
2022-09-26T05:18:49.050Z,99.90
2022-09-26T05:21:15.816Z,99.90
2022-09-26T05:24:01.262Z,99.90
2022-09-26T05:26:39.407Z,99.90
2022-09-26T05:29:08.912Z,99.90
2022-09-26T05:31:37.707Z,99.90
2022-09-26T05:34:18.372Z,99.90
2022-09-26T05:36:45.376Z,99.90
2022-09-26T05:39:30.810Z,99.90
2022-09-26T05:41:59.513Z,99.90
2022-09-26T05:44:27.447Z,99.90
2022-09-26T05:46:57.370Z,99.90
2022-09-26T05:49:25.120Z,99.90
2022-09-26T05:51:53.713Z,99.90
2022-09-26T05:54:20.487Z,99.90
2022-09-26T05:56:47.432Z,99.90
2022-09-26T05:59:14.201Z,99.90
2022-09-26T06:01:41.119Z,99.90
2022-09-26T06:04:07.823Z,99.90
2022-09-26T06:06:35.316Z,99.90
2022-09-26T06:09:03.490Z,99.90
2022-09-26T06:11:33.138Z,99.90
2022-09-26T06:14:00.868Z,99.90
2022-09-26T06:16:28.766Z,99.90
2022-09-26T06:18:55.881Z,99.90
2022-09-26T06:21:23.243Z,99.90
2022-09-26T06:23:49.992Z,99.90
2022-09-26T06:26:21.278Z,99.90
2022-09-26T06:28:51.615Z,99.90
2022-09-26T06:31:19.918Z,99.90
2022-09-26T06:33:53.469Z,99.90
2022-09-26T06:36:21.826Z,99.90
2022-09-26T06:38:48.864Z,99.90
2022-09-26T06:41:16.542Z,99.90
2022-09-26T06:43:47.633Z,99.90
2022-09-26T06:46:16.093Z,99.90
2022-09-26T06:48:43.875Z,99.90
2022-09-26T06:51:13.695Z,99.90
2022-09-26T06:53:41.046Z,99.90
2022-09-26T06:56:08.245Z,99.90
2022-09-26T06:58:35.061Z,99.90
2022-09-26T07:01:02.390Z,99.90
2022-09-26T07:03:29.638Z,99.90
2022-09-26T07:05:57.015Z,99.90
2022-09-26T07:08:43.289Z,99.90
2022-09-26T07:11:32.779Z,99.90
2022-09-26T07:14:01.935Z,99.90
2022-09-26T07:16:29.291Z,99.90
2022-09-26T07:18:56.636Z,99.90
2022-09-26T07:21:23.477Z,99.90
2022-09-26T07:23:50.197Z,99.90
2022-09-26T07:26:16.914Z,99.90
2022-09-26T07:28:44.668Z,99.90
2022-09-26T07:31:11.624Z,99.90
2022-09-26T07:33:40.202Z,99.90
2022-09-26T07:36:09.715Z,99.90
2022-09-26T07:38:36.481Z,99.90
2022-09-26T07:41:03.335Z,99.90
2022-09-26T07:44:16.909Z,99.90
2022-09-26T07:46:35.399Z,99.90
2022-09-26T07:49:20.649Z,99.90
2022-09-26T07:51:48.294Z,99.90
2022-09-26T07:54:15.114Z,99.90
2022-09-26T07:56:41.961Z,99.90
2022-09-26T07:59:08.658Z,99.90
2022-09-26T08:01:38.689Z,99.90
2022-09-26T08:04:06.384Z,99.90
2022-09-26T08:06:35.218Z,99.90
2022-09-26T08:09:02.085Z,99.90
2022-09-26T08:11:29.025Z,99.90
2022-09-26T08:13:55.749Z,99.90
2022-09-26T08:16:25.833Z,99.90
2022-09-26T08:18:54.226Z,99.90
2022-09-26T08:21:22.303Z,99.90
2022-09-26T08:23:49.306Z,99.90
2022-09-26T08:26:16.298Z,99.90
2022-09-26T08:28:43.939Z,99.90
2022-09-26T08:31:11.839Z,99.90
2022-09-26T08:33:38.941Z,99.90
2022-09-26T08:36:06.484Z,99.90
2022-09-26T08:38:33.959Z,99.90
2022-09-26T08:41:14.751Z,99.90
2022-09-26T08:43:48.478Z,99.90
2022-09-26T08:46:36.347Z,99.90
2022-09-26T08:49:24.848Z,99.90
2022-09-26T08:51:57.526Z,99.90
2022-09-26T08:54:43.522Z,99.90
2022-09-26T08:57:41.312Z,99.90
2022-09-26T09:00:21.637Z,99.90
2022-09-26T09:03:10.223Z,99.90
2022-09-26T09:05:43.626Z,99.90
2022-09-26T09:08:21.915Z,99.90
2022-09-26T09:11:01.989Z,99.90
2022-09-26T09:13:59.777Z,99.90
2022-09-26T09:16:53.269Z,99.90
2022-09-26T09:19:29.925Z,99.90
2022-09-26T09:22:11.739Z,99.90
2022-09-26T09:24:54.068Z,99.90
2022-09-26T09:30:29.806Z,99.90
2022-09-26T09:33:05.449Z,99.90
2022-09-26T09:35:46.813Z,99.90
2022-09-26T09:38:19.023Z,99.90
2022-09-26T09:40:58.826Z,99.90
2022-09-26T09:43:45.418Z,99.90
2022-09-26T09:46:35.784Z,99.90
2022-09-26T09:49:08.634Z,99.90
2022-09-26T09:52:02.429Z,99.90
2022-09-26T09:55:06.734Z,99.90
2022-09-26T09:57:45.554Z,99.90
2022-09-26T10:00:16.816Z,99.90
2022-09-26T10:03:14.591Z,99.90
2022-09-26T10:05:46.929Z,99.90
2022-09-26T10:08:18.819Z,99.90
2022-09-26T10:11:16.915Z,99.90
2022-09-26T10:13:45.108Z,99.90
2022-09-26T10:16:16.755Z,99.80
2022-09-26T10:19:08.074Z,99.80
2022-09-26T10:21:41.080Z,99.80
2022-09-26T10:24:23.988Z,99.80
2022-09-26T10:26:51.215Z,99.80
2022-09-26T10:29:34.278Z,99.70
2022-09-26T10:32:02.400Z,99.70
2022-09-26T10:34:39.024Z,99.70
2022-09-26T10:37:29.598Z,99.90
2022-09-26T10:40:17.225Z,99.70
2022-09-26T10:42:47.005Z,99.60
2022-09-26T10:45:16.042Z,99.60
2022-09-26T10:47:46.189Z,99.60
2022-09-26T10:50:20.696Z,99.60
2022-09-26T10:53:01.332Z,99.50
2022-09-26T10:55:34.811Z,99.50
2022-09-26T10:58:13.754Z,99.50
2022-09-26T11:00:50.407Z,99.50
2022-09-26T11:03:22.104Z,99.40
2022-09-26T11:05:58.193Z,99.40
2022-09-26T11:08:34.066Z,99.30
2022-09-26T11:11:11.307Z,99.40
2022-09-26T11:13:58.545Z,99.30
2022-09-26T11:16:28.481Z,99.30
2022-09-26T11:19:20.771Z,99.20
2022-09-26T11:21:58.511Z,99.20
2022-09-26T11:24:46.066Z,99.20
2022-09-26T11:27:31.438Z,99.10
2022-09-26T11:30:20.949Z,99.00
2022-09-26T11:32:50.319Z,99.00
2022-09-26T11:35:33.198Z,99.00
2022-09-26T11:38:28.977Z,99.00
2022-09-26T11:41:16.525Z,98.90
2022-09-26T11:44:21.605Z,98.90
2022-09-26T11:47:25.493Z,98.90
2022-09-26T11:50:10.672Z,98.90
2022-09-26T11:53:09.888Z,98.80
2022-09-26T11:55:56.134Z,98.90
2022-09-26T11:58:43.488Z,98.90
2022-09-26T12:01:38.176Z,98.90
2022-09-26T12:04:35.161Z,98.80
2022-09-26T12:07:39.287Z,98.80
2022-09-26T12:10:18.469Z,98.80
2022-09-26T12:12:48.012Z,98.80
2022-09-26T12:15:23.570Z,98.80
2022-09-26T12:18:06.136Z,98.80
2022-09-26T12:21:02.657Z,98.70
2022-09-26T12:23:35.620Z,98.80
2022-09-26T12:26:44.204Z,98.70
2022-09-26T12:29:31.562Z,98.70
2022-09-26T12:32:00.871Z,98.70
2022-09-26T12:35:21.561Z,98.70
2022-09-26T12:38:07.135Z,98.80
2022-09-26T12:40:56.197Z,98.70
2022-09-26T12:43:44.769Z,98.70
2022-09-26T12:46:29.711Z,98.70
2022-09-26T12:49:22.280Z,98.60
2022-09-26T12:51:55.646Z,98.60
2022-09-26T12:54:34.131Z,98.70
2022-09-26T12:57:11.828Z,98.70
2022-09-26T13:00:06.128Z,98.60
2022-09-26T13:03:07.880Z,98.60
2022-09-26T13:06:12.244Z,98.70
2022-09-26T13:08:47.958Z,98.70
2022-09-26T13:11:37.334Z,98.60
2022-09-26T13:14:14.580Z,98.60
2022-09-26T13:17:17.150Z,98.60
2022-09-26T13:19:51.655Z,98.60
2022-09-26T13:22:42.469Z,98.60
2022-09-26T13:25:18.979Z,98.60
2022-09-26T13:27:51.495Z,98.60
2022-09-26T13:30:19.347Z,98.60
2022-09-26T13:33:11.429Z,98.60
2022-09-26T13:35:43.554Z,98.60
2022-09-26T13:38:54.501Z,98.60
2022-09-26T13:41:39.198Z,98.60
2022-09-26T13:44:25.169Z,98.60
2022-09-26T13:47:13.623Z,98.60
2022-09-26T13:50:08.559Z,98.60
2022-09-26T13:52:46.782Z,98.60
2022-09-26T13:55:19.300Z,98.60
2022-09-26T13:58:04.019Z,98.60
2022-09-26T14:00:31.363Z,98.60
2022-09-26T14:03:09.387Z,98.60
2022-09-26T14:05:41.976Z,98.60
2022-09-26T14:08:47.573Z,98.50
2022-09-26T14:11:19.964Z,98.50
2022-09-26T14:13:48.032Z,98.50
2022-09-26T14:16:35.657Z,98.50
2022-09-26T14:19:13.289Z,98.50
2022-09-26T14:21:56.611Z,98.50
2022-09-26T14:24:31.645Z,98.50
2022-09-26T14:27:05.141Z,98.60
2022-09-26T14:29:42.421Z,98.50
2022-09-26T14:32:10.333Z,98.60
2022-09-26T14:35:00.334Z,98.50
2022-09-26T14:37:32.126Z,98.50
2022-09-26T14:40:07.990Z,98.50
2022-09-26T14:42:43.615Z,98.40
2022-09-26T14:45:19.398Z,98.50
2022-09-26T14:47:48.491Z,98.40
2022-09-26T14:50:20.730Z,98.40
2022-09-26T14:52:53.138Z,98.50
2022-09-26T14:55:20.091Z,98.40
2022-09-26T14:57:48.386Z,98.40
2022-09-26T15:00:44.169Z,98.40
2022-09-26T15:03:17.986Z,98.40
2022-09-26T15:05:45.471Z,98.40
2022-09-26T15:08:26.479Z,98.50
2022-09-26T15:11:00.314Z,98.40
2022-09-26T15:13:36.913Z,98.40
2022-09-26T15:16:11.518Z,98.40
2022-09-26T15:18:46.545Z,98.40
2022-09-26T15:21:22.274Z,98.40
2022-09-26T15:23:51.743Z,98.40
2022-09-26T15:26:22.919Z,98.40
2022-09-26T15:28:51.980Z,98.40
2022-09-26T15:31:43.722Z,98.40
2022-09-26T15:34:19.082Z,98.40
2022-09-26T15:36:54.953Z,98.30
2022-09-26T15:39:31.222Z,98.40
2022-09-26T15:42:49.242Z,98.40
2022-09-26T15:45:23.280Z,98.40
2022-09-26T15:47:50.118Z,98.30
2022-09-26T15:50:31.556Z,98.30
2022-09-26T15:53:04.346Z,98.40
2022-09-26T15:55:50.262Z,98.30
2022-09-26T15:58:22.983Z,98.30
2022-09-26T16:00:52.180Z,98.40
2022-09-26T16:03:41.312Z,98.30
2022-09-26T16:06:20.211Z,98.30
2022-09-26T16:08:57.682Z,98.30
2022-09-26T16:11:24.724Z,98.30
2022-09-26T16:13:52.820Z,98.30
2022-09-26T16:16:32.006Z,98.30
2022-09-26T16:19:05.254Z,98.30
2022-09-26T16:21:34.130Z,98.30
2022-09-26T16:24:26.464Z,98.30
2022-09-26T16:26:54.524Z,98.30
2022-09-26T16:29:34.653Z,98.30
2022-09-26T16:32:03.319Z,98.30
2022-09-26T16:34:31.071Z,98.20
2022-09-26T16:36:58.514Z,98.30
2022-09-26T16:39:28.499Z,98.30
2022-09-26T16:42:05.838Z,98.30
2022-09-26T16:44:49.134Z,98.30
2022-09-26T16:47:42.855Z,98.30
2022-09-26T16:50:29.890Z,98.30
2022-09-26T16:52:57.514Z,98.20
2022-09-26T16:55:25.383Z,98.20
2022-09-26T16:57:58.541Z,98.20
2022-09-26T17:00:52.404Z,98.20
2022-09-26T17:03:22.721Z,98.20
2022-09-26T17:05:51.454Z,98.30
2022-09-26T17:08:18.523Z,98.20
2022-09-26T17:10:46.422Z,98.20
2022-09-26T17:13:22.813Z,98.20
2022-09-26T17:15:54.636Z,98.20
2022-09-26T17:18:28.778Z,98.20
2022-09-26T17:20:56.889Z,98.20
2022-09-26T17:23:40.990Z,98.20
2022-09-26T17:26:18.110Z,98.20
2022-09-26T17:28:45.156Z,98.20
2022-09-26T17:31:19.460Z,98.20
2022-09-26T17:33:49.679Z,98.10
2022-09-26T17:36:25.483Z,98.30
2022-09-26T17:38:52.257Z,98.20
2022-09-26T17:41:19.018Z,98.30
2022-09-26T17:43:45.806Z,98.30
2022-09-26T17:46:15.984Z,98.30
2022-09-26T17:48:44.907Z,98.30
2022-09-26T17:51:14.360Z,98.30
2022-09-26T17:53:50.620Z,98.30
2022-09-26T17:56:19.140Z,98.40
2022-09-26T17:58:47.055Z,98.30
2022-09-26T18:01:23.991Z,98.30
2022-09-26T18:03:59.982Z,98.30
2022-09-26T18:06:31.338Z,98.30
2022-09-26T18:09:01.795Z,98.30
2022-09-26T18:11:29.257Z,98.30
2022-09-26T18:13:56.886Z,98.20
2022-09-26T18:16:24.709Z,98.20
2022-09-26T18:18:51.659Z,98.30
2022-09-26T18:21:19.856Z,98.20
2022-09-26T18:23:57.052Z,98.20
2022-09-26T18:26:31.253Z,98.20
2022-09-26T18:29:02.357Z,98.20
2022-09-26T18:31:31.327Z,98.20
2022-09-26T18:33:58.246Z,98.20
2022-09-26T18:36:26.194Z,98.20
2022-09-26T18:38:53.000Z,98.20
2022-09-26T18:41:25.515Z,98.30
2022-09-26T18:43:57.763Z,98.40
2022-09-26T18:46:24.738Z,98.30
2022-09-26T18:48:54.618Z,98.30
2022-09-26T18:51:21.405Z,98.40
2022-09-26T18:53:48.155Z,98.40
2022-09-26T18:56:33.886Z,98.50
2022-09-26T18:59:00.632Z,98.50
2022-09-26T19:01:29.196Z,98.50
2022-09-26T19:03:58.817Z,98.50
2022-09-26T19:06:34.488Z,98.50
2022-09-26T19:09:04.961Z,98.60
2022-09-26T19:11:34.446Z,98.60
2022-09-26T19:14:14.218Z,98.60
2022-09-26T19:16:42.652Z,98.60
2022-09-26T19:19:09.473Z,98.60
2022-09-26T19:21:49.797Z,98.60
2022-09-26T19:24:35.519Z,98.60
2022-09-26T19:27:22.625Z,98.60
2022-09-26T19:29:55.771Z,98.60
2022-09-26T19:32:24.521Z,98.50
2022-09-26T19:34:59.426Z,98.50
2022-09-26T19:37:26.545Z,98.40
2022-09-26T19:39:53.445Z,98.40
2022-09-26T19:42:20.139Z,98.60
2022-09-26T19:44:46.871Z,98.30
2022-09-26T19:47:17.443Z,98.40
2022-09-26T19:49:47.493Z,98.30
2022-09-26T19:52:19.897Z,98.40
2022-09-26T19:54:47.038Z,98.30
2022-09-26T19:57:19.491Z,98.30
2022-09-26T19:59:47.857Z,98.30
2022-09-26T20:02:24.453Z,98.30
2022-09-26T20:04:51.586Z,98.50
2022-09-26T20:07:19.685Z,98.70
2022-09-26T20:09:47.140Z,98.80
2022-09-26T20:12:13.938Z,99.00
2022-09-26T20:14:40.889Z,99.10
2022-09-26T20:17:25.445Z,99.10
2022-09-26T20:19:58.369Z,99.10
2022-09-26T20:22:26.027Z,99.20
2022-09-26T20:24:55.375Z,99.30
2022-09-26T20:27:25.487Z,99.40
2022-09-26T20:30:11.000Z,99.40
2022-09-26T20:32:38.132Z,99.50
2022-09-26T20:35:05.501Z,99.60
2022-09-26T20:37:36.282Z,99.80
2022-09-26T20:40:19.357Z,99.80
2022-09-26T20:42:50.256Z,99.90
2022-09-26T20:45:19.941Z,99.90
2022-09-26T20:47:46.731Z,99.90
2022-09-26T20:50:19.182Z,99.90
2022-09-26T20:52:46.031Z,99.90
2022-09-26T20:55:18.135Z,99.90
2022-09-26T20:57:45.501Z,99.90
2022-09-26T21:00:17.491Z,99.90
2022-09-26T21:02:45.540Z,99.90
2022-09-26T21:05:18.173Z,99.90
2022-09-26T21:07:45.401Z,99.90
2022-09-26T21:10:29.839Z,99.90
2022-09-26T21:12:57.358Z,99.90
2022-09-26T21:15:26.816Z,99.90
2022-09-26T21:17:54.769Z,99.90
2022-09-26T21:20:31.000Z,99.90
2022-09-26T21:23:00.023Z,99.90
2022-09-26T21:25:30.121Z,99.90
2022-09-26T21:28:00.414Z,99.90
2022-09-26T21:30:28.029Z,99.90
2022-09-26T21:32:59.607Z,99.90
2022-09-26T21:35:30.389Z,99.90
2022-09-26T21:37:58.712Z,99.90
2022-09-26T21:40:29.165Z,99.90
2022-09-26T21:43:03.644Z,99.90
2022-09-26T21:45:30.352Z,99.90
2022-09-26T21:47:57.719Z,99.90
2022-09-26T21:50:28.158Z,99.90
2022-09-26T21:53:01.325Z,99.90
2022-09-26T21:55:33.766Z,99.90
2022-09-26T21:58:05.581Z,99.90
2022-09-26T22:00:32.458Z,99.90
2022-09-26T22:03:00.092Z,99.90
2022-09-26T22:05:26.893Z,99.90
2022-09-26T22:07:53.606Z,99.90
2022-09-26T22:10:20.385Z,99.90
2022-09-26T22:12:47.074Z,99.90
2022-09-26T22:15:13.904Z,99.90
2022-09-26T22:17:40.603Z,99.90
2022-09-26T22:20:08.020Z,99.90
2022-09-26T22:22:34.892Z,99.90
2022-09-26T22:25:04.155Z,99.90
2022-09-26T22:27:33.273Z,99.90
2022-09-26T22:30:00.159Z,99.90
2022-09-26T22:32:26.935Z,99.90
2022-09-26T22:34:53.620Z,99.90
2022-09-26T22:37:20.332Z,99.90
2022-09-26T22:39:47.140Z,99.90
2022-09-26T22:42:14.091Z,99.90
2022-09-26T22:44:40.900Z,99.90
2022-09-26T22:47:07.726Z,99.90
2022-09-26T22:49:34.478Z,99.90
2022-09-26T22:52:01.300Z,99.90
2022-09-26T22:54:28.056Z,99.90
2022-09-26T22:56:55.834Z,99.90
2022-09-26T22:59:22.515Z,99.90
2022-09-26T23:01:51.750Z,99.90
2022-09-26T23:04:18.600Z,99.90
2022-09-26T23:06:45.304Z,99.90
2022-09-26T23:09:12.148Z,99.90
2022-09-26T23:11:38.820Z,99.90
2022-09-26T23:14:05.491Z,99.90
2022-09-26T23:16:32.768Z,99.90
2022-09-26T23:18:59.533Z,99.90
2022-09-26T23:21:27.666Z,99.90
2022-09-26T23:23:56.134Z,99.90
2022-09-26T23:26:26.343Z,99.90
2022-09-26T23:28:54.811Z,99.90
2022-09-26T23:31:22.116Z,99.90
2022-09-26T23:33:48.944Z,99.90
2022-09-26T23:36:16.078Z,99.90
2022-09-26T23:38:42.830Z,99.90
2022-09-26T23:41:11.430Z,99.90
2022-09-26T23:43:38.741Z,99.90
2022-09-26T23:46:05.977Z,99.90
2022-09-26T23:48:33.065Z,99.90
2022-09-26T23:51:00.150Z,99.90
2022-09-26T23:53:27.269Z,99.90
2022-09-26T23:56:01.519Z,99.90
2022-09-26T23:58:28.568Z,99.90
